createdAt,value
2018-01-13T00:00:49.433Z,99.90
2018-01-13T00:03:17.594Z,99.90
2018-01-13T00:05:45.730Z,99.90
2018-01-13T00:08:13.884Z,99.90
2018-01-13T00:10:42.017Z,99.90
2018-01-13T00:13:10.173Z,99.90
2018-01-13T00:15:38.318Z,99.90
2018-01-13T00:18:06.487Z,99.90
2018-01-13T00:20:34.623Z,99.90
2018-01-13T00:23:02.796Z,99.90
2018-01-13T00:25:30.929Z,99.90
2018-01-13T00:27:59.081Z,99.90
2018-01-13T00:30:27.208Z,99.90
2018-01-13T00:32:55.402Z,99.90
2018-01-13T00:35:23.542Z,99.90
2018-01-13T00:37:51.702Z,99.90
2018-01-13T00:40:19.833Z,99.90
2018-01-13T00:42:48.000Z,99.90
2018-01-13T00:45:16.136Z,99.90
2018-01-13T00:47:44.295Z,99.90
2018-01-13T00:50:12.425Z,99.90
2018-01-13T00:52:40.581Z,99.90
2018-01-13T00:55:08.712Z,99.90
2018-01-13T00:57:36.864Z,99.90
2018-01-13T01:00:05.001Z,99.90
2018-01-13T01:02:33.948Z,99.90
2018-01-13T01:05:02.082Z,99.90
2018-01-13T01:07:30.241Z,99.90
2018-01-13T01:09:58.373Z,99.90
2018-01-13T01:12:26.538Z,99.90
2018-01-13T01:14:54.672Z,99.90
2018-01-13T01:17:23.587Z,99.90
2018-01-13T01:19:51.727Z,99.90
2018-01-13T01:22:20.662Z,99.90
2018-01-13T01:24:48.800Z,99.90
2018-01-13T01:27:17.721Z,99.90
2018-01-13T01:29:45.856Z,99.90
2018-01-13T01:32:14.751Z,99.90
2018-01-13T01:34:42.910Z,99.90
2018-01-13T01:37:11.047Z,99.90
2018-01-13T01:39:39.206Z,99.90
2018-01-13T01:42:07.338Z,99.90
2018-01-13T01:44:35.501Z,99.90
2018-01-13T01:47:03.661Z,99.90
2018-01-13T01:49:31.821Z,99.90
2018-01-13T01:51:59.949Z,99.90
2018-01-13T01:54:28.106Z,99.90
2018-01-13T01:56:57.010Z,99.90
2018-01-13T01:59:25.176Z,99.90
2018-01-13T02:01:54.072Z,99.90
2018-01-13T02:04:22.233Z,99.90
2018-01-13T02:06:51.142Z,99.90
2018-01-13T02:09:19.304Z,99.90
2018-01-13T02:11:48.205Z,99.90
2018-01-13T02:14:16.367Z,99.90
2018-01-13T02:16:45.259Z,99.90
2018-01-13T02:19:13.418Z,99.90
2018-01-13T02:21:41.545Z,99.90
2018-01-13T02:24:09.708Z,99.90
2018-01-13T02:26:37.841Z,99.90
2018-01-13T02:29:05.993Z,99.90
2018-01-13T02:31:34.129Z,99.90
2018-01-13T02:34:02.296Z,99.90
2018-01-13T02:36:30.416Z,99.90
2018-01-13T02:38:58.581Z,99.90
2018-01-13T02:41:26.717Z,99.90
2018-01-13T02:43:54.872Z,99.90
2018-01-13T02:46:23.005Z,99.90
2018-01-13T02:48:51.170Z,99.90
2018-01-13T02:51:19.302Z,99.90
2018-01-13T02:53:47.656Z,99.90
2018-01-13T02:56:15.796Z,99.90
2018-01-13T02:58:43.957Z,99.90
2018-01-13T03:01:12.089Z,99.90
2018-01-13T03:03:40.250Z,99.90
2018-01-13T03:06:08.373Z,99.90
2018-01-13T03:08:36.532Z,99.90
2018-01-13T03:11:04.671Z,99.90
2018-01-13T03:13:32.837Z,99.90
2018-01-13T03:16:00.978Z,99.90
2018-01-13T03:18:29.137Z,99.90
2018-01-13T03:20:57.267Z,99.90
2018-01-13T03:23:25.421Z,99.90
2018-01-13T03:25:53.565Z,99.90
2018-01-13T03:28:21.717Z,99.90
2018-01-13T03:30:49.858Z,99.90
2018-01-13T03:33:18.018Z,99.90
2018-01-13T03:35:46.148Z,99.90
2018-01-13T03:38:14.301Z,99.90
2018-01-13T03:40:42.431Z,99.90
2018-01-13T03:43:10.593Z,99.90
2018-01-13T03:45:38.732Z,99.90
2018-01-13T03:48:06.886Z,99.90
2018-01-13T03:50:35.018Z,99.90
2018-01-13T03:53:03.167Z,99.90
2018-01-13T03:55:31.314Z,99.90
2018-01-13T03:57:59.478Z,99.90
2018-01-13T04:00:27.608Z,99.90
2018-01-13T04:02:55.742Z,99.90
2018-01-13T04:05:23.901Z,99.90
2018-01-13T04:07:52.794Z,99.90
2018-01-13T04:10:21.270Z,99.90
2018-01-13T04:12:50.169Z,99.90
2018-01-13T04:15:18.333Z,99.90
2018-01-13T04:17:47.225Z,99.90
2018-01-13T04:20:15.395Z,99.90
2018-01-13T04:22:44.288Z,99.90
2018-01-13T04:25:12.445Z,99.90
2018-01-13T04:27:40.578Z,99.90
2018-01-13T04:30:08.732Z,99.90
2018-01-13T04:32:36.870Z,99.90
2018-01-13T04:35:05.029Z,99.90
2018-01-13T04:37:33.160Z,99.90
2018-01-13T04:40:01.312Z,99.90
2018-01-13T04:42:29.444Z,99.90
2018-01-13T04:44:57.610Z,99.90
2018-01-13T04:47:25.740Z,99.90
2018-01-13T04:49:53.897Z,99.90
2018-01-13T04:52:22.057Z,99.90
2018-01-13T04:54:50.221Z,99.90
2018-01-13T04:57:18.359Z,99.90
2018-01-13T04:59:46.537Z,99.90
2018-01-13T05:02:14.681Z,99.90
2018-01-13T05:04:42.846Z,99.90
2018-01-13T05:07:10.977Z,99.90
2018-01-13T05:09:39.138Z,99.90
2018-01-13T05:12:07.269Z,99.90
2018-01-13T05:14:35.432Z,99.90
2018-01-13T05:17:04.325Z,99.90
2018-01-13T05:19:32.478Z,99.90
2018-01-13T05:22:01.378Z,99.90
2018-01-13T05:24:29.532Z,99.90
2018-01-13T05:26:57.671Z,99.90
2018-01-13T05:29:25.835Z,99.90
2018-01-13T05:31:53.966Z,99.90
2018-01-13T05:34:22.125Z,99.90
2018-01-13T05:36:50.262Z,99.90
2018-01-13T05:39:18.421Z,99.90
2018-01-13T05:41:46.550Z,99.90
2018-01-13T05:44:14.709Z,99.90
2018-01-13T05:46:42.838Z,99.90
2018-01-13T05:49:11.001Z,99.90
2018-01-13T05:51:39.134Z,99.90
2018-01-13T05:54:07.293Z,99.90
2018-01-13T05:56:35.436Z,99.90
2018-01-13T05:59:03.585Z,99.90
2018-01-13T06:01:31.730Z,99.90
2018-01-13T06:03:59.914Z,99.90
2018-01-13T06:06:28.053Z,99.90
2018-01-13T06:08:56.211Z,99.90
2018-01-13T06:11:24.359Z,99.90
2018-01-13T06:13:52.522Z,99.90
2018-01-13T06:16:21.417Z,99.90
2018-01-13T06:18:49.572Z,99.90
2018-01-13T06:21:18.476Z,99.90
2018-01-13T06:23:46.633Z,99.90
2018-01-13T06:26:14.813Z,99.90
2018-01-13T06:28:42.974Z,99.90
2018-01-13T06:31:11.101Z,99.90
2018-01-13T06:33:39.232Z,99.90
2018-01-13T06:36:08.165Z,99.90
2018-01-13T06:38:36.300Z,99.90
2018-01-13T06:41:05.231Z,99.90
2018-01-13T06:43:33.365Z,99.90
2018-01-13T06:46:02.291Z,99.90
2018-01-13T06:48:30.436Z,99.90
2018-01-13T06:50:59.361Z,99.90
2018-01-13T06:53:27.495Z,99.90
2018-01-13T06:55:56.416Z,99.90
2018-01-13T06:58:24.546Z,99.90
2018-01-13T07:00:52.702Z,99.90
2018-01-13T07:03:20.838Z,99.90
2018-01-13T07:05:48.996Z,99.90
2018-01-13T07:08:17.135Z,99.90
2018-01-13T07:10:45.298Z,99.90
2018-01-13T07:13:13.428Z,99.90
2018-01-13T07:15:41.591Z,99.90
2018-01-13T07:18:09.729Z,99.90
2018-01-13T07:20:37.880Z,99.90
2018-01-13T07:23:06.021Z,99.90
2018-01-13T07:25:34.173Z,99.90
2018-01-13T07:28:02.313Z,99.90
2018-01-13T07:30:30.469Z,99.90
2018-01-13T07:32:58.607Z,99.90
2018-01-13T07:35:26.790Z,99.90
2018-01-13T07:37:54.912Z,99.90
2018-01-13T07:40:23.079Z,99.90
2018-01-13T07:42:51.209Z,99.90
2018-01-13T07:45:19.372Z,99.90
2018-01-13T07:47:47.501Z,99.90
2018-01-13T07:50:15.660Z,99.90
2018-01-13T07:52:43.801Z,99.90
2018-01-13T07:55:11.963Z,99.90
2018-01-13T07:57:40.095Z,99.90
2018-01-13T08:00:08.266Z,99.90
2018-01-13T08:02:36.403Z,99.90
2018-01-13T08:05:04.552Z,99.90
2018-01-13T08:07:32.692Z,99.90
2018-01-13T08:10:00.845Z,99.90
2018-01-13T08:12:28.977Z,99.90
2018-01-13T08:14:57.135Z,99.90
2018-01-13T08:17:25.270Z,99.80
2018-01-13T08:19:53.433Z,99.80
2018-01-13T08:22:21.566Z,99.80
2018-01-13T08:24:49.725Z,99.70
2018-01-13T08:27:17.853Z,99.60
2018-01-13T08:29:46.010Z,99.60
2018-01-13T08:32:14.147Z,99.50
2018-01-13T08:34:42.313Z,99.40
2018-01-13T08:37:10.445Z,99.40
2018-01-13T08:39:38.610Z,99.30
2018-01-13T08:42:06.741Z,99.20
2018-01-13T08:44:34.909Z,99.10
2018-01-13T08:47:03.038Z,99.00
2018-01-13T08:49:31.197Z,98.90
2018-01-13T08:51:59.324Z,98.80
2018-01-13T08:54:27.478Z,98.80
2018-01-13T08:56:55.608Z,98.70
2018-01-13T08:59:23.736Z,98.70
2018-01-13T09:01:57.629Z,98.50
2018-01-13T09:04:25.762Z,98.50
2018-01-13T09:06:53.928Z,98.50
2018-01-13T09:09:22.057Z,98.30
2018-01-13T09:11:50.256Z,98.40
2018-01-13T09:14:18.365Z,98.40
2018-01-13T09:16:46.530Z,98.30
2018-01-13T09:19:14.901Z,98.20
2018-01-13T09:21:43.049Z,98.10
2018-01-13T09:24:11.186Z,98.10
2018-01-13T09:26:39.348Z,98.10
2018-01-13T09:29:07.477Z,98.00
2018-01-13T09:31:35.638Z,98.00
2018-01-13T09:34:03.769Z,97.90
2018-01-13T09:36:31.932Z,98.00
2018-01-13T09:39:00.062Z,98.00
2018-01-13T09:41:28.220Z,97.90
2018-01-13T09:43:56.348Z,97.70
2018-01-13T09:46:24.542Z,97.70
2018-01-13T09:48:52.685Z,97.60
2018-01-13T09:51:20.844Z,97.40
2018-01-13T09:53:48.982Z,97.40
2018-01-13T09:56:17.144Z,97.30
2018-01-13T09:58:45.281Z,97.10
2018-01-13T10:01:13.436Z,97.10
2018-01-13T10:03:41.606Z,96.80
2018-01-13T10:06:10.517Z,96.80
2018-01-13T10:08:38.656Z,96.70
2018-01-13T10:11:06.818Z,96.70
2018-01-13T10:13:34.944Z,96.70
2018-01-13T10:16:03.100Z,96.40
2018-01-13T10:18:31.234Z,96.20
2018-01-13T10:20:59.389Z,96.20
2018-01-13T10:23:27.526Z,96.20
2018-01-13T10:25:55.794Z,96.30
2018-01-13T10:28:24.692Z,95.70
2018-01-13T10:30:52.845Z,95.70
2018-01-13T10:33:21.746Z,95.70
2018-01-13T10:35:49.905Z,95.70
2018-01-13T10:38:18.897Z,95.50
2018-01-13T10:40:47.821Z,95.50
2018-01-13T10:43:15.961Z,95.30
2018-01-13T10:45:44.113Z,95.10
2018-01-13T10:48:12.267Z,95.10
2018-01-13T10:50:40.420Z,95.20
2018-01-13T10:53:08.558Z,95.50
2018-01-13T10:55:37.489Z,95.30
2018-01-13T10:58:05.622Z,95.30
2018-01-13T11:00:34.553Z,94.80
2018-01-13T11:03:02.673Z,94.80
2018-01-13T11:05:30.828Z,95.00
2018-01-13T11:07:58.956Z,95.20
2018-01-13T11:10:27.116Z,94.70
2018-01-13T11:12:55.249Z,94.40
2018-01-13T11:15:23.408Z,93.90
2018-01-13T11:17:51.539Z,93.50
2018-01-13T11:20:19.693Z,93.60
2018-01-13T11:22:47.823Z,93.80
2018-01-13T11:25:16.000Z,94.00
2018-01-13T11:27:44.147Z,93.50
2018-01-13T11:30:12.325Z,93.50
2018-01-13T11:32:40.504Z,93.60
2018-01-13T11:35:08.658Z,93.80
2018-01-13T11:37:36.829Z,92.70
2018-01-13T11:40:04.972Z,92.90
2018-01-13T11:42:33.888Z,91.70
2018-01-13T11:45:02.025Z,91.60
2018-01-13T11:47:30.189Z,91.30
2018-01-13T11:49:58.318Z,91.60
2018-01-13T11:52:26.551Z,91.50
2018-01-13T11:54:54.684Z,91.50
2018-01-13T11:57:22.859Z,91.30
2018-01-13T11:59:50.989Z,91.70
2018-01-13T12:02:19.158Z,91.60
2018-01-13T12:04:47.280Z,91.00
2018-01-13T12:07:15.434Z,91.30
2018-01-13T12:09:43.561Z,91.70
2018-01-13T12:12:11.729Z,92.10
2018-01-13T12:14:39.857Z,91.80
2018-01-13T12:17:08.020Z,92.00
2018-01-13T12:19:36.149Z,92.30
2018-01-13T12:22:04.362Z,92.30
2018-01-13T12:24:33.261Z,91.50
2018-01-13T12:27:01.469Z,91.50
2018-01-13T12:29:29.613Z,91.70
2018-01-13T12:31:57.774Z,91.80
2018-01-13T12:34:25.895Z,91.70
2018-01-13T12:36:54.057Z,91.90
2018-01-13T12:39:22.198Z,92.00
2018-01-13T12:41:50.354Z,91.70
2018-01-13T12:44:18.488Z,91.90
2018-01-13T12:46:46.644Z,91.80
2018-01-13T12:49:14.776Z,91.70
2018-01-13T12:51:43.031Z,91.80
2018-01-13T12:54:11.281Z,92.30
2018-01-13T12:56:39.558Z,91.90
2018-01-13T12:59:07.701Z,91.70
2018-01-13T13:01:35.869Z,91.80
2018-01-13T13:04:04.013Z,91.90
2018-01-13T13:06:32.185Z,92.00
2018-01-13T13:09:01.093Z,91.80
2018-01-13T13:11:30.093Z,91.80
2018-01-13T13:13:59.009Z,91.60
2018-01-13T13:16:27.168Z,91.60
2018-01-13T13:18:56.065Z,91.70
2018-01-13T13:21:24.229Z,91.60
2018-01-13T13:23:53.122Z,91.80
2018-01-13T13:26:21.291Z,91.70
2018-01-13T13:28:50.198Z,91.30
2018-01-13T13:31:18.364Z,91.30
2018-01-13T13:33:47.250Z,90.90
2018-01-13T13:36:15.408Z,91.00
2018-01-13T13:38:44.325Z,91.10
2018-01-13T13:41:12.508Z,90.90
2018-01-13T13:43:40.641Z,91.00
2018-01-13T13:46:08.792Z,91.00
2018-01-13T13:48:36.921Z,91.10
2018-01-13T13:51:05.099Z,90.90
2018-01-13T13:53:33.225Z,91.00
2018-01-13T13:56:01.381Z,91.30
2018-01-13T13:58:29.799Z,91.30
2018-01-13T14:01:21.945Z,91.00
2018-01-13T14:03:26.098Z,90.60
2018-01-13T14:05:54.218Z,90.10
2018-01-13T14:08:22.368Z,90.30
2018-01-13T14:10:50.497Z,90.30
2018-01-13T14:13:18.659Z,90.70
2018-01-13T14:15:47.548Z,91.00
2018-01-13T14:18:15.715Z,91.00
2018-01-13T14:20:44.612Z,90.80
2018-01-13T14:23:12.757Z,90.80
2018-01-13T14:25:40.891Z,91.10
2018-01-13T14:28:09.049Z,91.60
2018-01-13T14:30:37.172Z,91.10
2018-01-13T14:33:05.342Z,90.80
2018-01-13T14:35:33.501Z,90.90
2018-01-13T14:38:01.633Z,90.90
2018-01-13T14:40:29.792Z,90.80
2018-01-13T14:42:57.926Z,90.60
2018-01-13T14:45:26.077Z,90.80
2018-01-13T14:47:54.213Z,90.90
2018-01-13T14:50:22.394Z,90.90
2018-01-13T14:52:50.733Z,90.70
2018-01-13T14:55:18.924Z,90.70
2018-01-13T14:57:47.827Z,90.80
2018-01-13T15:00:16.190Z,90.60
2018-01-13T15:02:44.315Z,90.80
2018-01-13T15:05:12.457Z,90.50
2018-01-13T15:07:40.605Z,90.70
2018-01-13T15:10:08.733Z,90.50
2018-01-13T15:12:36.889Z,90.40
2018-01-13T15:15:05.056Z,90.80
2018-01-13T15:17:33.225Z,90.80
2018-01-13T15:20:01.372Z,90.70
2018-01-13T15:22:29.547Z,90.20
2018-01-13T15:24:57.674Z,90.40
2018-01-13T15:27:25.834Z,90.40
2018-01-13T15:29:53.956Z,90.40
2018-01-13T15:32:22.116Z,90.40
2018-01-13T15:34:50.252Z,90.20
2018-01-13T15:37:18.414Z,90.10
2018-01-13T15:39:46.551Z,89.60
2018-01-13T15:42:14.701Z,89.90
2018-01-13T15:44:42.834Z,90.00
2018-01-13T15:47:11.050Z,90.40
2018-01-13T15:49:39.218Z,90.80
2018-01-13T15:52:07.384Z,91.10
2018-01-13T15:54:35.727Z,91.10
2018-01-13T15:57:04.106Z,91.20
2018-01-13T15:59:32.261Z,91.40
2018-01-13T16:02:00.542Z,91.20
2018-01-13T16:04:29.499Z,90.90
2018-01-13T16:06:57.781Z,90.90
2018-01-13T16:09:25.957Z,90.50
2018-01-13T16:11:54.127Z,90.90
2018-01-13T16:14:22.311Z,90.60
2018-01-13T16:16:50.472Z,90.50
2018-01-13T16:19:18.615Z,90.60
2018-01-13T16:21:46.802Z,90.70
2018-01-13T16:24:14.983Z,90.60
2018-01-13T16:26:43.135Z,90.70
2018-01-13T16:29:11.306Z,90.70
2018-01-13T16:31:39.501Z,90.80
2018-01-13T16:34:07.654Z,90.80
2018-01-13T16:36:35.804Z,90.80
2018-01-13T16:39:03.958Z,91.00
2018-01-13T16:41:32.156Z,90.40
2018-01-13T16:44:01.145Z,90.90
2018-01-13T16:46:30.168Z,90.90
2018-01-13T16:48:58.440Z,90.80
2018-01-13T16:51:26.611Z,90.00
2018-01-13T16:53:54.894Z,89.40
2018-01-13T16:56:23.165Z,89.50
2018-01-13T16:58:51.347Z,89.80
2018-01-13T17:01:19.505Z,90.00
2018-01-13T17:03:47.686Z,89.50
2018-01-13T17:06:15.825Z,88.40
2018-01-13T17:08:43.990Z,88.90
2018-01-13T17:11:12.128Z,89.30
2018-01-13T17:13:40.291Z,89.30
2018-01-13T17:16:08.425Z,88.00
2018-01-13T17:18:36.609Z,88.20
2018-01-13T17:21:05.499Z,89.00
2018-01-13T17:23:33.675Z,89.00
2018-01-13T17:26:01.814Z,89.90
2018-01-13T17:28:30.128Z,88.80
2018-01-13T17:30:58.333Z,89.50
2018-01-13T17:33:26.504Z,89.20
2018-01-13T17:35:54.714Z,89.00
2018-01-13T17:38:23.060Z,88.60
2018-01-13T17:40:51.630Z,88.60
2018-01-13T17:43:19.894Z,88.70
2018-01-13T17:45:48.024Z,88.30
2018-01-13T17:48:16.212Z,88.10
2018-01-13T17:50:45.122Z,89.60
2018-01-13T17:53:13.304Z,89.70
2018-01-13T17:55:41.463Z,90.00
2018-01-13T17:58:09.751Z,89.50
2018-01-13T18:00:37.901Z,88.10
2018-01-13T18:03:06.666Z,88.70
2018-01-13T18:05:34.815Z,89.20
2018-01-13T18:08:03.025Z,88.50
2018-01-13T18:10:31.166Z,87.90
2018-01-13T18:12:59.316Z,88.60
2018-01-13T18:15:27.462Z,87.60
2018-01-13T18:17:56.393Z,89.20
2018-01-13T18:20:24.580Z,89.20
2018-01-13T18:22:52.819Z,89.30
2018-01-13T18:25:21.445Z,88.40
2018-01-13T18:27:49.633Z,87.40
2018-01-13T18:30:17.821Z,87.50
2018-01-13T18:32:46.008Z,87.90
2018-01-13T18:35:14.386Z,87.80
2018-01-13T18:37:42.790Z,87.10
2018-01-13T18:40:10.941Z,87.20
2018-01-13T18:42:39.900Z,87.30
2018-01-13T18:45:08.608Z,87.20
2018-01-13T18:47:36.830Z,87.40
2018-01-13T18:50:04.975Z,88.00
2018-01-13T18:52:33.226Z,86.90
2018-01-13T18:55:01.386Z,86.00
2018-01-13T18:57:29.559Z,84.60
2018-01-13T18:59:57.741Z,85.40
2018-01-13T19:02:25.873Z,86.00
2018-01-13T19:04:54.315Z,86.80
2018-01-13T19:07:22.804Z,86.00
2018-01-13T19:09:51.363Z,86.50
2018-01-13T19:12:19.960Z,86.90
2018-01-13T19:14:48.692Z,87.40
2018-01-13T19:17:17.285Z,87.40
2018-01-13T19:19:46.047Z,87.20
2018-01-13T19:22:14.841Z,86.60
2018-01-13T19:24:43.647Z,86.50
2018-01-13T19:27:12.780Z,86.60
2018-01-13T19:29:41.005Z,86.70
2018-01-13T19:32:09.142Z,86.40
2018-01-13T19:34:37.307Z,85.90
2018-01-13T19:37:05.448Z,84.50
2018-01-13T19:39:33.617Z,85.60
2018-01-13T19:42:01.774Z,86.10
2018-01-13T19:44:30.003Z,86.30
2018-01-13T19:46:58.948Z,85.50
2018-01-13T19:49:27.108Z,85.40
2018-01-13T19:51:55.237Z,85.40
2018-01-13T19:54:23.538Z,85.90
2018-01-13T19:56:52.438Z,85.90
2018-01-13T19:59:20.683Z,85.80
2018-01-13T20:01:48.857Z,85.50
2018-01-13T20:04:17.017Z,85.60
2018-01-13T20:06:45.277Z,85.30
2018-01-13T20:09:13.457Z,85.10
2018-01-13T20:11:41.615Z,85.00
2018-01-13T20:14:09.827Z,84.30
2018-01-13T20:16:38.003Z,84.30
2018-01-13T20:19:06.178Z,84.10
2018-01-13T20:21:34.432Z,84.30
2018-01-13T20:24:03.091Z,84.50
2018-01-13T20:26:31.323Z,85.20
2018-01-13T20:29:00.281Z,86.30
2018-01-13T20:31:28.505Z,86.30
2018-01-13T20:33:56.778Z,85.90
2018-01-13T20:36:24.925Z,85.50
2018-01-13T20:38:53.113Z,85.30
2018-01-13T20:41:22.047Z,86.70
2018-01-13T20:43:50.254Z,86.60
2018-01-13T20:46:18.415Z,86.90
2018-01-13T20:48:46.576Z,86.70
2018-01-13T20:51:14.712Z,86.40
2018-01-13T20:53:42.896Z,86.00
2018-01-13T20:56:11.109Z,85.90
2018-01-13T20:58:39.336Z,85.90
2018-01-13T21:01:07.521Z,87.00
2018-01-13T21:03:35.792Z,87.00
2018-01-13T21:06:03.953Z,87.60
2018-01-13T21:08:32.154Z,87.70
2018-01-13T21:11:00.300Z,87.60
2018-01-13T21:13:28.532Z,87.60
2018-01-13T21:15:56.666Z,88.00
2018-01-13T21:18:24.829Z,87.80
2018-01-13T21:20:52.964Z,87.40
2018-01-13T21:23:21.173Z,86.80
2018-01-13T21:25:49.365Z,86.70
2018-01-13T21:28:17.518Z,87.10
2018-01-13T21:30:45.678Z,87.30
2018-01-13T21:33:14.574Z,88.10
2018-01-13T21:35:42.741Z,88.10
2018-01-13T21:38:11.672Z,87.90
2018-01-13T21:40:39.861Z,87.90
2018-01-13T21:43:08.151Z,87.80
2018-01-13T21:45:36.314Z,88.10
2018-01-13T21:48:04.458Z,88.20
2018-01-13T21:50:32.650Z,88.20
2018-01-13T21:53:00.809Z,88.20
2018-01-13T21:55:28.989Z,88.60
2018-01-13T21:57:57.155Z,89.00
2018-01-13T22:00:25.315Z,89.40
2018-01-13T22:02:53.563Z,89.20
2018-01-13T22:05:21.714Z,88.00
2018-01-13T22:07:49.857Z,88.00
2018-01-13T22:10:18.032Z,87.80
2018-01-13T22:12:46.253Z,88.30
2018-01-13T22:15:14.426Z,88.50
2018-01-13T22:17:42.558Z,88.00
2018-01-13T22:20:10.724Z,88.50
2018-01-13T22:22:38.870Z,88.40
2018-01-13T22:25:07.822Z,88.20
2018-01-13T22:27:36.040Z,88.10
2018-01-13T22:30:04.201Z,87.60
2018-01-13T22:32:32.355Z,87.80
2018-01-13T22:35:00.539Z,88.10
2018-01-13T22:37:28.678Z,87.90
2018-01-13T22:39:56.857Z,87.80
2018-01-13T22:42:25.001Z,87.70
2018-01-13T22:44:53.158Z,88.40
2018-01-13T22:47:21.284Z,88.50
2018-01-13T22:49:49.477Z,88.60
2018-01-13T22:52:17.620Z,88.70
2018-01-13T22:54:45.768Z,88.90
2018-01-13T22:57:13.909Z,88.90
2018-01-13T22:59:42.090Z,88.60
2018-01-13T23:02:10.989Z,88.40
2018-01-13T23:04:39.149Z,88.40
2018-01-13T23:07:08.045Z,88.80
2018-01-13T23:09:36.206Z,88.80
2018-01-13T23:12:05.113Z,88.70
2018-01-13T23:14:33.270Z,88.60
2018-01-13T23:17:01.402Z,88.20
2018-01-13T23:19:29.561Z,88.70
2018-01-13T23:21:57.689Z,88.90
2018-01-13T23:24:25.852Z,89.20
2018-01-13T23:26:53.984Z,89.30
2018-01-13T23:29:22.140Z,89.00
2018-01-13T23:31:50.264Z,89.10
2018-01-13T23:34:18.417Z,89.30
2018-01-13T23:36:46.557Z,89.20
2018-01-13T23:39:14.711Z,89.10
2018-01-13T23:41:42.845Z,89.30
2018-01-13T23:44:10.998Z,89.00
2018-01-13T23:46:39.125Z,89.20
2018-01-13T23:49:08.022Z,89.90
2018-01-13T23:51:36.176Z,89.70
2018-01-13T23:54:04.307Z,89.20
2018-01-13T23:56:32.469Z,88.80
2018-01-13T23:59:00.601Z,88.40
